createdAt,value
2023-04-11T00:02:01.011Z,96429.47
2023-04-11T00:04:27.466Z,96416.91
2023-04-11T00:06:53.923Z,96408.69
2023-04-11T00:09:20.277Z,96419.94
2023-04-11T00:11:46.665Z,96414.13
2023-04-11T00:14:13.044Z,96414.63
2023-04-11T00:16:39.432Z,96414.38
2023-04-11T00:19:05.843Z,96416.75
2023-04-11T00:21:32.202Z,96428.41
2023-04-11T00:23:58.543Z,96435.81
2023-04-11T00:26:24.876Z,96435.75
2023-04-11T00:28:51.228Z,96454.72
2023-04-11T00:31:17.634Z,96464.22
2023-04-11T00:33:43.998Z,96450.53
2023-04-11T00:36:10.415Z,96439.38
2023-04-11T00:38:36.850Z,96426.69
2023-04-11T00:41:03.205Z,96423.63
2023-04-11T00:43:29.619Z,96414.19
2023-04-11T00:45:56.028Z,96424.97
2023-04-11T00:48:22.393Z,96425.78
2023-04-11T00:50:48.762Z,96409.44
2023-04-11T00:53:15.111Z,96409.44
2023-04-11T00:55:41.491Z,96405.16
2023-04-11T00:58:07.860Z,96385.72
2023-04-11T01:00:34.237Z,96395.25
2023-04-11T01:03:00.748Z,96393.13
2023-04-11T01:05:27.182Z,96394.25
2023-04-11T01:07:53.546Z,96398.91
2023-04-11T01:10:19.910Z,96402.09
2023-04-11T01:12:46.300Z,96398.41
2023-04-11T01:15:12.698Z,96407.34
2023-04-11T01:17:39.068Z,96422.16
2023-04-11T01:20:05.485Z,96415.34
2023-04-11T01:22:31.828Z,96407.34
2023-04-11T01:24:58.215Z,96432.09
2023-04-11T01:27:24.598Z,96431.16
2023-04-11T01:29:51.025Z,96429.00
2023-04-11T01:32:17.446Z,96437.16
2023-04-11T01:34:43.868Z,96430.06
2023-04-11T01:37:10.256Z,96434.34
2023-04-11T01:39:36.594Z,96434.88
2023-04-11T01:42:02.971Z,96442.72
2023-04-11T01:44:29.377Z,96458.09
2023-04-11T01:46:55.761Z,96456.81
2023-04-11T01:49:22.145Z,96446.34
2023-04-11T01:51:48.553Z,96454.25
2023-04-11T01:54:14.901Z,96451.06
2023-04-11T01:56:41.237Z,96445.78
2023-04-11T01:59:08.728Z,96444.31
2023-04-11T02:01:35.088Z,96439.16
2023-04-11T02:04:01.619Z,96429.41
2023-04-11T02:06:28.133Z,96429.63
2023-04-11T02:08:54.789Z,96437.47
2023-04-11T02:11:21.477Z,96434.72
2023-04-11T02:13:47.827Z,96432.03
2023-04-11T02:16:14.345Z,96433.84
2023-04-11T02:18:40.739Z,96439.94
2023-04-11T02:21:07.102Z,96449.34
2023-04-11T02:23:33.475Z,96452.03
2023-04-11T02:25:59.839Z,96455.22
2023-04-11T02:28:26.220Z,96447.25
2023-04-11T02:30:52.640Z,96436.88
2023-04-11T02:33:19.079Z,96444.22
2023-04-11T02:35:45.486Z,96438.13
2023-04-11T02:38:11.874Z,96442.13
2023-04-11T02:40:38.237Z,96445.19
2023-04-11T02:43:04.699Z,96444.69
2023-04-11T02:45:31.104Z,96445.28
2023-04-11T02:47:57.551Z,96463.72
2023-04-11T02:50:23.976Z,96470.03
2023-04-11T02:52:50.340Z,96462.50
2023-04-11T02:55:16.706Z,96449.81
2023-04-11T02:57:43.096Z,96449.53
2023-04-11T03:00:09.486Z,96455.66
2023-04-11T03:02:35.920Z,96457.97
2023-04-11T03:05:02.354Z,96457.84
2023-04-11T03:07:28.753Z,96449.66
2023-04-11T03:09:55.120Z,96453.41
2023-04-11T03:12:21.458Z,96461.28
2023-04-11T03:14:47.846Z,96454.38
2023-04-11T03:17:14.184Z,96448.00
2023-04-11T03:19:40.528Z,96451.66
2023-04-11T03:22:06.867Z,96443.69
2023-04-11T03:24:33.199Z,96448.47
2023-04-11T03:26:59.573Z,96448.47
2023-04-11T03:29:25.921Z,96447.47
2023-04-11T03:31:52.309Z,96444.81
2023-04-11T03:34:18.658Z,96452.16
2023-04-11T03:36:45.033Z,96440.53
2023-04-11T03:39:11.412Z,96447.88
2023-04-11T03:41:37.824Z,96449.94
2023-04-11T03:44:04.157Z,96445.50
2023-04-11T03:46:30.604Z,96434.97
2023-04-11T03:48:57.289Z,96424.69
2023-04-11T03:51:23.839Z,96423.63
2023-04-11T03:53:50.215Z,96416.78
2023-04-11T03:56:16.593Z,96421.56
2023-04-11T03:58:42.994Z,96412.38
2023-04-11T04:01:09.343Z,96423.16
2023-04-11T04:03:35.860Z,96425.72
2023-04-11T04:06:02.288Z,96427.88
2023-04-11T04:08:28.733Z,96422.84
2023-04-11T04:10:55.080Z,96425.72
2023-04-11T04:13:21.491Z,96424.13
2023-04-11T04:15:47.881Z,96433.38
2023-04-11T04:18:14.234Z,96444.06
2023-04-11T04:20:40.572Z,96450.44
2023-04-11T04:23:06.919Z,96456.19
2023-04-11T04:25:33.284Z,96458.72
2023-04-11T04:27:59.669Z,96460.34
2023-04-11T04:30:26.019Z,96453.94
2023-04-11T04:32:52.380Z,96449.81
2023-04-11T04:35:18.781Z,96441.84
2023-04-11T04:37:45.132Z,96449.19
2023-04-11T04:40:11.471Z,96462.25
2023-04-11T04:42:37.882Z,96473.72
2023-04-11T04:45:04.223Z,96472.59
2023-04-11T04:47:30.630Z,96466.25
2023-04-11T04:49:57.057Z,96474.59
2023-04-11T04:52:23.399Z,96475.25
2023-04-11T04:54:49.756Z,96484.56
2023-04-11T04:57:16.090Z,96496.22
2023-04-11T04:59:42.469Z,96496.75
2023-04-11T05:02:08.928Z,96499.38
2023-04-11T05:04:35.377Z,96492.81
2023-04-11T05:07:01.772Z,96485.19
2023-04-11T05:09:28.162Z,96493.00
2023-04-11T05:11:54.569Z,96492.44
2023-04-11T05:14:20.905Z,96494.00
2023-04-11T05:16:47.274Z,96494.44
2023-04-11T05:19:13.628Z,96506.44
2023-04-11T05:21:40.038Z,96499.69
2023-04-11T05:24:06.394Z,96505.78
2023-04-11T05:26:32.754Z,96510.00
2023-04-11T05:28:59.148Z,96501.72
2023-04-11T05:31:25.498Z,96511.41
2023-04-11T05:33:51.840Z,96519.22
2023-04-11T05:36:18.268Z,96510.75
2023-04-11T05:38:44.665Z,96511.34
2023-04-11T05:41:11.053Z,96513.50
2023-04-11T05:43:37.420Z,96527.84
2023-04-11T05:46:03.816Z,96539.00
2023-04-11T05:48:30.202Z,96532.22
2023-04-11T05:50:56.585Z,96531.22
2023-04-11T05:53:22.982Z,96531.28
2023-04-11T05:55:49.370Z,96530.41
2023-04-11T05:58:15.722Z,96532.66
2023-04-11T06:00:42.129Z,96537.91
2023-04-11T06:03:08.682Z,96538.22
2023-04-11T06:05:35.078Z,96539.50
2023-04-11T06:08:01.425Z,96540.38
2023-04-11T06:10:27.782Z,96543.66
2023-04-11T06:12:54.125Z,96555.75
2023-04-11T06:15:20.505Z,96543.19
2023-04-11T06:17:47.007Z,96554.94
2023-04-11T06:20:16.224Z,96543.56
2023-04-11T06:22:42.615Z,96553.91
2023-04-11T06:25:08.994Z,96555.09
2023-04-11T06:27:35.388Z,96546.28
2023-04-11T06:30:01.757Z,96536.94
2023-04-11T06:32:28.158Z,96541.03
2023-04-11T06:34:54.519Z,96546.22
2023-04-11T06:37:20.848Z,96542.56
2023-04-11T06:39:47.183Z,96532.63
2023-04-11T06:42:13.581Z,96542.00
2023-04-11T06:44:40.013Z,96541.72
2023-04-11T06:47:06.423Z,96546.03
2023-04-11T06:49:32.758Z,96560.66
2023-04-11T06:51:59.125Z,96568.63
2023-04-11T06:54:25.517Z,96568.16
2023-04-11T06:56:51.876Z,96566.56
2023-04-11T06:59:18.207Z,96565.06
2023-04-11T07:01:44.624Z,96561.38
2023-04-11T07:04:11.234Z,96561.47
2023-04-11T07:06:37.715Z,96567.22
2023-04-11T07:09:04.094Z,96572.47
2023-04-11T07:11:30.429Z,96568.03
2023-04-11T07:13:57.094Z,96569.13
2023-04-11T07:16:23.584Z,96561.59
2023-04-11T07:18:49.971Z,96565.69
2023-04-11T07:21:16.332Z,96577.16
2023-04-11T07:23:42.716Z,96579.31
2023-04-11T07:26:09.109Z,96582.41
2023-04-11T07:28:35.457Z,96585.38
2023-04-11T07:31:01.815Z,96584.19
2023-04-11T07:33:28.187Z,96575.97
2023-04-11T07:35:54.583Z,96571.53
2023-04-11T07:38:21.001Z,96569.00
2023-04-11T07:40:47.391Z,96577.50
2023-04-11T07:43:13.736Z,96568.91
2023-04-11T07:45:40.247Z,96562.16
2023-04-11T07:48:06.717Z,96555.75
2023-04-11T07:50:33.134Z,96561.09
2023-04-11T07:52:59.521Z,96563.25
2023-04-11T07:55:25.916Z,96563.88
2023-04-11T07:57:52.264Z,96563.34
2023-04-11T08:00:18.610Z,96561.44
2023-04-11T08:02:45.172Z,96559.13
2023-04-11T08:05:11.674Z,96563.78
2023-04-11T08:07:38.156Z,96559.16
2023-04-11T08:10:04.547Z,96562.09
2023-04-11T08:12:30.950Z,96560.59
2023-04-11T08:14:57.305Z,96566.16
2023-04-11T08:17:28.331Z,96569.44
2023-04-11T08:19:55.385Z,96554.38
2023-04-11T08:22:21.755Z,96555.47
2023-04-11T08:24:48.305Z,96558.66
2023-04-11T08:27:14.661Z,96563.44
2023-04-11T08:29:40.999Z,96567.25
2023-04-11T08:32:07.356Z,96573.13
2023-04-11T08:34:33.734Z,96574.72
2023-04-11T08:37:00.116Z,96584.13
2023-04-11T08:39:26.460Z,96586.84
2023-04-11T08:41:52.832Z,96584.59
2023-04-11T08:44:19.176Z,96589.19
2023-04-11T08:46:45.594Z,96598.25
2023-04-11T08:49:11.936Z,96598.88
2023-04-11T08:51:38.352Z,96592.13
2023-04-11T08:54:04.727Z,96583.22
2023-04-11T08:56:31.274Z,96586.88
2023-04-11T08:58:57.669Z,96591.63
2023-04-11T09:01:24.100Z,96583.69
2023-04-11T09:03:50.477Z,96581.50
2023-04-11T09:06:16.818Z,96588.06
2023-04-11T09:08:43.222Z,96580.50
2023-04-11T09:11:09.563Z,96578.06
2023-04-11T09:13:35.937Z,96575.81
2023-04-11T09:16:02.315Z,96579.78
2023-04-11T09:18:28.657Z,96575.59
2023-04-11T09:20:54.999Z,96581.59
2023-04-11T09:23:21.334Z,96583.25
2023-04-11T09:25:47.868Z,96586.56
2023-04-11T09:28:14.221Z,96580.25
2023-04-11T09:30:40.560Z,96583.03
2023-04-11T09:33:06.944Z,96580.38
2023-04-11T09:35:33.310Z,96579.44
2023-04-11T09:37:59.697Z,96581.00
2023-04-11T09:40:26.101Z,96572.44
2023-04-11T09:42:52.493Z,96566.66
2023-04-11T09:45:18.862Z,96564.72
2023-04-11T09:47:45.221Z,96566.25
2023-04-11T09:50:11.613Z,96554.16
2023-04-11T09:52:37.981Z,96557.94
2023-04-11T09:55:04.446Z,96563.91
2023-04-11T09:57:30.867Z,96556.06
2023-04-11T09:59:57.216Z,96564.06
2023-04-11T10:02:23.650Z,96564.13
2023-04-11T10:04:50.147Z,96570.38
2023-04-11T10:07:16.546Z,96572.47
2023-04-11T10:09:42.907Z,96565.25
2023-04-11T10:12:09.247Z,96559.69
2023-04-11T10:14:35.641Z,96559.34
2023-04-11T10:17:02.035Z,96557.47
2023-04-11T10:19:28.402Z,96555.53
2023-04-11T10:21:54.778Z,96558.38
2023-04-11T10:24:21.179Z,96554.00
2023-04-11T10:26:47.569Z,96550.25
2023-04-11T10:29:14.024Z,96541.69
2023-04-11T10:31:40.612Z,96545.59
2023-04-11T10:34:07.101Z,96555.81
2023-04-11T10:36:33.487Z,96561.00
2023-04-11T10:38:59.881Z,96553.41
2023-04-11T10:41:26.227Z,96555.25
2023-04-11T10:43:52.558Z,96556.78
2023-04-11T10:46:18.959Z,96551.66
2023-04-11T10:48:45.365Z,96545.84
2023-04-11T10:51:11.749Z,96546.88
2023-04-11T10:53:38.130Z,96538.13
2023-04-11T10:56:04.534Z,96535.72
2023-04-11T10:58:30.933Z,96546.28
2023-04-11T11:00:57.311Z,96536.03
2023-04-11T11:03:23.820Z,96532.16
2023-04-11T11:05:50.293Z,96539.56
2023-04-11T11:08:16.672Z,96549.66
2023-04-11T11:10:43.026Z,96557.63
2023-04-11T11:13:09.367Z,96550.75
2023-04-11T11:15:35.769Z,96548.34
2023-04-11T11:18:02.197Z,96539.69
2023-04-11T11:20:28.594Z,96545.22
2023-04-11T11:22:55.029Z,96542.69
2023-04-11T11:25:21.416Z,96547.22
2023-04-11T11:27:47.775Z,96548.06
2023-04-11T11:30:14.156Z,96549.72
2023-04-11T11:32:40.588Z,96548.50
2023-04-11T11:35:06.997Z,96565.94
2023-04-11T11:37:33.352Z,96548.44
2023-04-11T11:39:59.742Z,96543.19
2023-04-11T11:42:26.130Z,96556.66
2023-04-11T11:44:52.469Z,96558.75
2023-04-11T11:47:18.848Z,96552.53
2023-04-11T11:49:45.276Z,96566.84
2023-04-11T11:52:11.676Z,96563.69
2023-04-11T11:54:38.057Z,96559.19
2023-04-11T11:57:04.461Z,96547.88
2023-04-11T11:59:30.814Z,96545.28
2023-04-11T12:01:57.205Z,96533.72
2023-04-11T12:04:23.808Z,96526.13
2023-04-11T12:06:50.253Z,96531.16
2023-04-11T12:09:16.625Z,96527.69
2023-04-11T12:11:43.008Z,96535.34
2023-04-11T12:14:09.388Z,96540.69
2023-04-11T12:16:35.840Z,96537.81
2023-04-11T12:19:02.263Z,96540.19
2023-04-11T12:21:28.633Z,96538.44
2023-04-11T12:23:55.221Z,96541.88
2023-04-11T12:26:21.802Z,96544.63
2023-04-11T12:28:48.161Z,96543.63
2023-04-11T12:31:14.625Z,96535.63
2023-04-11T12:33:41.139Z,96529.63
2023-04-11T12:36:07.679Z,96523.31
2023-04-11T12:38:34.051Z,96526.94
2023-04-11T12:41:26.208Z,96529.66
2023-04-11T12:43:46.773Z,96528.16
2023-04-11T12:46:13.238Z,96529.25
2023-04-11T12:48:39.745Z,96527.69
2023-04-11T12:51:06.118Z,96525.34
2023-04-11T12:53:32.491Z,96516.16
2023-04-11T12:55:58.872Z,96507.47
2023-04-11T12:58:25.264Z,96507.69
2023-04-11T13:00:51.638Z,96512.72
2023-04-11T13:03:18.088Z,96512.25
2023-04-11T13:05:44.545Z,96507.94
2023-04-11T13:08:11.027Z,96507.19
2023-04-11T13:10:37.400Z,96507.72
2023-04-11T13:13:17.028Z,96495.91
2023-04-11T13:15:44.628Z,96501.69
2023-04-11T13:18:11.009Z,96514.16
2023-04-11T13:20:37.438Z,96500.94
2023-04-11T13:23:03.796Z,96497.25
2023-04-11T13:25:30.169Z,96493.53
2023-04-11T13:27:56.532Z,96487.19
2023-04-11T13:30:22.903Z,96478.72
2023-04-11T13:32:52.296Z,96481.38
2023-04-11T13:35:18.742Z,96482.47
2023-04-11T13:37:45.114Z,96477.94
2023-04-11T13:40:11.517Z,96484.28
2023-04-11T13:42:37.949Z,96480.31
2023-04-11T13:45:04.303Z,96469.75
2023-04-11T13:47:30.725Z,96463.94
2023-04-11T13:49:57.138Z,96466.59
2023-04-11T13:52:23.690Z,96473.47
2023-04-11T13:54:50.080Z,96468.34
2023-04-11T13:57:16.402Z,96473.31
2023-04-11T13:59:42.773Z,96469.03
2023-04-11T14:02:09.195Z,96465.28
2023-04-11T14:04:35.716Z,96471.13
2023-04-11T14:07:02.168Z,96471.16
2023-04-11T14:09:28.570Z,96466.94
2023-04-11T14:11:55.028Z,96468.28
2023-04-11T14:14:21.452Z,96459.56
2023-04-11T14:16:47.876Z,96460.66
2023-04-11T14:19:14.252Z,96458.25
2023-04-11T14:21:40.714Z,96450.63
2023-04-11T14:24:07.106Z,96459.84
2023-04-11T14:26:33.506Z,96446.38
2023-04-11T14:28:59.918Z,96434.22
2023-04-11T14:31:26.427Z,96434.78
2023-04-11T14:33:52.889Z,96435.84
2023-04-11T14:36:19.260Z,96435.88
2023-04-11T14:38:45.633Z,96428.47
2023-04-11T14:41:11.993Z,96433.78
2023-04-11T14:43:38.360Z,96431.69
2023-04-11T14:46:04.725Z,96423.22
2023-04-11T14:48:31.095Z,96420.03
2023-04-11T14:50:57.450Z,96422.16
2023-04-11T14:53:23.845Z,96419.25
2023-04-11T14:55:50.273Z,96416.31
2023-04-11T14:58:16.642Z,96422.13
2023-04-11T15:00:43.030Z,96404.66
2023-04-11T15:03:09.577Z,96410.53
2023-04-11T15:05:36.005Z,96407.84
2023-04-11T15:08:02.388Z,96400.72
2023-04-11T15:10:28.750Z,96394.09
2023-04-11T15:12:55.131Z,96395.66
2023-04-11T15:15:21.500Z,96387.72
2023-04-11T15:17:47.920Z,96384.53
2023-04-11T15:20:14.346Z,96383.50
2023-04-11T15:22:41.532Z,96377.16
2023-04-11T15:25:08.136Z,96377.97
2023-04-11T15:27:34.541Z,96386.44
2023-04-11T15:30:00.980Z,96379.28
2023-04-11T15:32:27.413Z,96369.75
2023-04-11T15:34:53.817Z,96370.81
2023-04-11T15:37:20.185Z,96369.22
2023-04-11T15:39:46.572Z,96362.91
2023-04-11T15:42:13.503Z,96368.72
2023-04-11T15:44:40.009Z,96359.75
2023-04-11T15:47:06.480Z,96361.31
2023-04-11T15:49:32.933Z,96354.72
2023-04-11T15:51:59.346Z,96356.59
2023-04-11T15:54:25.696Z,96345.50
2023-04-11T15:56:52.054Z,96348.66
2023-04-11T15:59:18.400Z,96345.47
2023-04-11T16:01:44.940Z,96342.34
2023-04-11T16:04:11.432Z,96338.06
2023-04-11T16:06:37.892Z,96337.00
2023-04-11T16:09:04.240Z,96331.19
2023-04-11T16:11:30.582Z,96326.16
2023-04-11T16:13:57.518Z,96325.63
2023-04-11T16:16:24.194Z,96322.72
2023-04-11T16:18:50.640Z,96326.44
2023-04-11T16:21:16.986Z,96323.28
2023-04-11T16:23:43.504Z,96324.34
2023-04-11T16:26:09.964Z,96330.16
2023-04-11T16:28:36.368Z,96331.19
2023-04-11T16:31:02.713Z,96323.78
2023-04-11T16:33:29.094Z,96320.09
2023-04-11T16:35:55.528Z,96328.00
2023-04-11T16:38:21.883Z,96315.06
2023-04-11T16:40:48.277Z,96310.03
2023-04-11T16:43:14.748Z,96303.44
2023-04-11T16:45:41.274Z,96298.41
2023-04-11T16:48:07.736Z,96299.19
2023-04-11T16:50:34.265Z,96294.41
2023-04-11T16:53:00.673Z,96290.44
2023-04-11T16:55:27.036Z,96290.72
2023-04-11T16:57:53.417Z,96302.31
2023-04-11T17:00:19.829Z,96293.88
2023-04-11T17:02:46.323Z,96289.91
2023-04-11T17:05:12.837Z,96292.56
2023-04-11T17:07:39.242Z,96284.91
2023-04-11T17:10:05.691Z,96287.78
2023-04-11T17:12:32.097Z,96289.88
2023-04-11T17:14:58.432Z,96287.69
2023-04-11T17:17:24.828Z,96288.22
2023-04-11T17:19:51.224Z,96278.19
2023-04-11T17:22:17.698Z,96288.16
2023-04-11T17:24:44.073Z,96291.31
2023-04-11T17:27:10.474Z,96288.69
2023-04-11T17:29:36.868Z,96281.84
2023-04-11T17:32:03.260Z,96289.78
2023-04-11T17:34:29.645Z,96294.56
2023-04-11T17:36:56.025Z,96286.09
2023-04-11T17:39:22.383Z,96288.97
2023-04-11T17:41:48.722Z,96287.09
2023-04-11T17:44:15.052Z,96282.31
2023-04-11T17:46:41.544Z,96286.75
2023-04-11T17:49:07.969Z,96277.97
2023-04-11T17:51:34.388Z,96273.25
2023-04-11T17:54:01.056Z,96281.13
2023-04-11T17:59:11.701Z,96271.38
2023-04-11T18:01:38.090Z,96276.88
2023-04-11T18:04:04.655Z,96285.81
2023-04-11T18:06:31.109Z,96279.44
2023-04-11T18:08:57.509Z,96278.38
2023-04-11T18:11:23.877Z,96294.19
2023-04-11T18:13:54.004Z,96289.38
2023-04-11T18:16:20.443Z,96287.22
2023-04-11T18:18:46.810Z,96284.47
2023-04-11T18:21:13.176Z,96286.06
2023-04-11T18:23:39.516Z,96275.50
2023-04-11T18:26:05.899Z,96261.84
2023-04-11T18:28:32.308Z,96257.84
2023-04-11T18:30:58.755Z,96268.28
2023-04-11T18:33:25.143Z,96268.69
2023-04-11T18:35:51.549Z,96276.06
2023-04-11T18:38:18.012Z,96278.72
2023-04-11T18:40:44.409Z,96279.22
2023-04-11T18:43:10.783Z,96274.38
2023-04-11T18:45:39.002Z,96287.00
2023-04-11T18:48:06.072Z,96290.97
2023-04-11T18:50:32.619Z,96284.94
2023-04-11T18:53:04.841Z,96282.81
2023-04-11T18:55:32.306Z,96283.56
2023-04-11T18:58:00.793Z,96276.09
2023-04-11T19:00:27.559Z,96280.28
2023-04-11T19:02:54.186Z,96287.94
2023-04-11T19:05:20.974Z,96288.44
2023-04-11T19:07:47.567Z,96290.81
2023-04-11T19:10:13.962Z,96290.28
2023-04-11T19:12:40.596Z,96289.13
2023-04-11T19:15:07.003Z,96274.16
2023-04-11T19:17:33.364Z,96288.25
2023-04-11T19:19:59.731Z,96286.25
2023-04-11T19:22:26.099Z,96293.28
2023-04-11T19:24:52.439Z,96282.75
2023-04-11T19:27:18.815Z,96282.94
2023-04-11T19:29:45.208Z,96284.38
2023-04-11T19:32:11.654Z,96269.72
2023-04-11T19:34:38.080Z,96275.53
2023-04-11T19:37:04.435Z,96277.03
2023-04-11T19:39:30.817Z,96270.56
2023-04-11T19:41:57.173Z,96260.84
2023-04-11T19:44:23.510Z,96262.66
2023-04-11T19:46:49.880Z,96260.03
2023-04-11T19:49:16.222Z,96262.03
2023-04-11T19:51:42.592Z,96253.09
2023-04-11T19:54:08.939Z,96246.44
2023-04-11T19:56:35.317Z,96247.81
2023-04-11T19:59:01.708Z,96244.19
2023-04-11T20:01:28.109Z,96240.00
2023-04-11T20:03:54.586Z,96237.91
2023-04-11T20:06:21.007Z,96227.22
2023-04-11T20:08:47.343Z,96229.31
2023-04-11T20:11:13.692Z,96220.19
2023-04-11T20:13:40.082Z,96233.72
2023-04-11T20:16:06.423Z,96230.53
2023-04-11T20:18:32.802Z,96223.38
2023-04-11T20:20:59.153Z,96217.09
2023-04-11T20:23:25.516Z,96224.69
2023-04-11T20:25:51.902Z,96222.41
2023-04-11T20:28:18.288Z,96220.34
2023-04-11T20:30:44.696Z,96219.78
2023-04-11T20:33:11.198Z,96209.78
2023-04-11T20:35:37.634Z,96207.94
2023-04-11T20:38:04.065Z,96214.28
2023-04-11T20:40:30.445Z,96208.59
2023-04-11T20:42:56.859Z,96206.72
2023-04-11T20:45:23.248Z,96198.97
2023-04-11T20:47:49.777Z,96192.59
2023-04-11T20:50:16.294Z,96187.34
2023-04-11T20:52:42.665Z,96181.59
2023-04-11T20:55:09.026Z,96169.81
2023-04-11T20:57:35.405Z,96176.84
2023-04-11T21:00:01.778Z,96160.63
2023-04-11T21:02:28.288Z,96156.75
2023-04-11T21:04:54.766Z,96143.06
2023-04-11T21:07:21.206Z,96148.31
2023-04-11T21:09:47.539Z,96142.56
2023-04-11T21:12:13.908Z,96146.19
2023-04-11T21:14:40.259Z,96142.19
2023-04-11T21:17:06.590Z,96150.09
2023-04-11T21:19:32.973Z,96140.75
2023-04-11T21:21:59.327Z,96138.97
2023-04-11T21:24:25.710Z,96138.97
2023-04-11T21:26:52.122Z,96142.56
2023-04-11T21:29:18.476Z,96134.13
2023-04-11T21:31:44.931Z,96128.44
2023-04-11T21:34:11.347Z,96129.03
2023-04-11T21:36:37.680Z,96119.91
2023-04-11T21:39:04.065Z,96121.50
2023-04-11T21:41:30.452Z,96119.91
2023-04-11T21:43:57.051Z,96117.00
2023-04-11T21:46:23.677Z,96120.31
2023-04-11T21:48:51.519Z,96115.66
2023-04-11T21:51:17.939Z,96126.06
2023-04-11T21:53:44.296Z,96121.22
2023-04-11T21:56:10.676Z,96126.56
2023-04-11T21:58:37.017Z,96121.09
2023-04-11T22:01:03.360Z,96102.25
2023-04-11T22:03:29.915Z,96092.59
2023-04-11T22:05:56.437Z,96112.56
2023-04-11T22:08:22.901Z,96104.16
2023-04-11T22:10:49.288Z,96104.63
2023-04-11T22:13:15.641Z,96098.41
2023-04-11T22:15:42.039Z,96103.63
2023-04-11T22:18:08.465Z,96098.69
2023-04-11T22:20:34.863Z,96099.13
2023-04-11T22:23:01.215Z,96092.94
2023-04-11T22:25:27.599Z,96086.13
2023-04-11T22:27:53.972Z,96071.97
2023-04-11T22:30:20.339Z,96073.09
2023-04-11T22:32:46.763Z,96070.34
2023-04-11T22:35:13.131Z,96067.66
2023-04-11T22:37:39.517Z,96058.09
2023-04-11T22:40:05.869Z,96053.88
2023-04-11T22:42:32.241Z,96050.19
2023-04-11T22:44:58.595Z,96048.63
2023-04-11T22:47:24.946Z,96038.16
2023-04-11T22:49:51.358Z,96028.09
2023-04-11T22:52:17.746Z,96032.22
2023-04-11T22:54:44.108Z,96028.09
2023-04-11T22:57:10.510Z,96010.38
2023-04-11T22:59:36.883Z,96008.63
2023-04-11T23:02:03.359Z,96001.53
2023-04-11T23:04:29.820Z,96014.06
2023-04-11T23:06:56.187Z,96014.50
2023-04-11T23:09:22.560Z,96015.91
2023-04-11T23:11:49.014Z,96008.94
2023-04-11T23:14:15.525Z,96009.88
2023-04-11T23:16:42.001Z,96017.75
2023-04-11T23:19:08.444Z,96015.63
2023-04-11T23:21:34.843Z,96020.56
2023-04-11T23:24:01.194Z,96010.38
2023-04-11T23:26:27.565Z,96008.84
2023-04-11T23:28:53.910Z,96000.88
2023-04-11T23:31:20.346Z,96002.94
2023-04-11T23:33:46.755Z,95993.97
2023-04-11T23:36:13.191Z,95989.03
2023-04-11T23:38:39.582Z,95982.91
2023-04-11T23:41:06.117Z,95970.22
2023-04-11T23:43:32.511Z,95968.34
2023-04-11T23:45:58.950Z,95964.59
2023-04-11T23:48:25.315Z,95963.19
2023-04-11T23:50:51.713Z,95964.31
2023-04-11T23:53:18.113Z,95954.88
2023-04-11T23:55:44.480Z,95943.75
2023-04-11T23:58:10.826Z,95947.94
